Time;durP1;ratioP1;P1;durP2;ratioP2;P2;SDS_P1;SDS_P2;PMS_P1;PMS_P2;Temp;Humidity;BMP_temperature;BMP_pressure;BME280_temperature;BME280_humidity;BME280_pressure;Samples;Min_cycle;Max_cycle;Signal;HPM_P1;HPM_P2
2022/01/26 00:06:06;;;;;;;;;;;;;;;;;;5011942;28;1387;-82
2022/01/26 00:08:31;;;;;;;;;;;;;;;;;;5006077;28;1584;-82
2022/01/26 00:10:56;;;;;;;;;;;;;;;;;;5011919;28;1531;-82
2022/01/26 00:13:21;;;;;;;;;;;;;;;;;;5011821;28;1580;-82
2022/01/26 00:15:47;;;;;;;;;;;;;;;;;;5012845;28;1981;-82
2022/01/26 00:18:14;;;;;;;;;;;;;;;;;;5011996;28;1529;-82
2022/01/26 00:20:47;;;;;;;;;;;;;;;;;;5008087;28;1778;-82
2022/01/26 00:41:04;;;;;;;;;;;;;;;;;;5008867;28;1628;-82
2022/01/26 00:43:29;;;;;;;;;;;;;;;;;;5010877;28;1514;-82
2022/01/26 00:45:57;;;;;;;;;;;;;;;;;;5009405;28;1585;-82
2022/01/26 00:48:22;;;;;;;;;;;;;;;;;;5008028;28;1652;-82
2022/01/26 00:50:51;;;;;;;;;;;;;;;;;;5007980;28;1631;-82
2022/01/26 00:53:17;;;;;;;;;;;;;;;;;;5015283;28;1529;-82
2022/01/26 00:55:42;;;;;;;;;;;;;;;;;;5006642;28;1973;-82
2022/01/26 00:58:07;;;;;;;;;;;;;;;;;;4997256;28;855;-82
2022/01/26 01:00:33;;;;;;;;;;;;;;;;;;5007353;28;1657;-82
2022/01/26 01:02:58;;;;;;;;;;;;;;;;;;5015113;28;1538;-82
2022/01/26 01:05:29;;;;;;;;;;;;;;;;;;5012896;28;1635;-82
2022/01/26 01:08:02;;;;;;;;;;;;;;;;;;4997893;28;1628;-82
2022/01/26 01:10:28;;;;;;;;;;;;;;;;;;5011462;28;1595;-82
2022/01/26 01:12:58;;;;;;;;;;;;;;;;;;5013851;28;1607;-82
2022/01/26 01:15:24;;;;;;;;;;;;;;;;;;5009215;28;1981;-83
2022/01/26 01:17:53;;;;;;;;;;;;;;;;;;5014964;28;1568;-83
2022/01/26 01:31:10;;;;;;;;;;;;;;;;;;5014806;28;1628;-83
2022/01/26 01:33:39;;;;;;;;;;;;;;;;;;5000208;28;1503;-82
2022/01/26 01:36:06;;;;;;;;;;;;;;;;;;5013315;28;2006;-83
2022/01/26 01:38:31;;;;;;;;;;;;;;;;;;5014104;28;1449;-82
2022/01/26 01:40:57;;;;;;;;;;;;;;;;;;4999653;28;1676;-82
2022/01/26 01:43:22;;;;;;;;;;;;;;;;;;5014926;28;1477;-82
2022/01/26 01:45:50;;;;;;;;;;;;;;;;;;5014567;28;1189;-82
2022/01/26 01:48:19;;;;;;;;;;;;;;;;;;5014366;28;1724;-82
2022/01/26 01:50:45;;;;;;;;;;;;;;;;;;4998997;28;1477;-82
2022/01/26 01:53:10;;;;;;;;;;;;;;;;;;5011400;28;1585;-82
2022/01/26 01:55:39;;;;;;;;;;;;;;;;;;5004027;28;1981;-82
2022/01/26 01:58:05;;;;;;;;;;;;;;;;;;5013277;28;1467;-82
2022/01/26 02:00:30;;;;;;;;;;;;;;;;;;5014527;28;1596;-82
2022/01/26 02:02:57;;;;;;;;;;;;;;;;;;5009379;28;1798;-82
2022/01/26 02:05:22;;;;;;;;;;;;;;;;;;5011292;28;1597;-82
2022/01/26 02:07:47;;;;;;;;;;;;;;;;;;5007888;28;1593;-82
2022/01/26 02:10:13;;;;;;;;;;;;;;;;;;5009329;28;1723;-82
2022/01/26 02:12:43;;;;;;;;;;;;;;;;;;5012820;28;1593;-82
2022/01/26 02:15:16;;;;;;;;;;;;;;;;;;5013765;28;1628;-82
2022/01/26 02:53:30;;;;;;;;;;;;;;;;;;4961431;28;1247;-81
2022/01/26 02:56:02;;;;;;;;;;;;;;;;;;5011265;28;1906;-81
2022/01/26 03:01:17;;;;;;;;;;;;;;;;;;5013240;28;1412;-81
2022/01/26 03:03:51;;;;;;;;;;;;;;;;;;5009827;28;1764;-82
2022/01/26 03:06:23;;;;;;;;;;;;;;;;;;5004183;28;1376;-84
2022/01/26 03:08:55;;;;;;;;;;;;;;;;;;5013527;28;1627;-80
2022/01/26 03:11:25;;;;;;;;;;;;;;;;;;5006577;28;1341;-80
2022/01/26 03:13:57;;;;;;;;;;;;;;;;;;5012511;28;1601;-80
2022/01/26 03:16:31;;;;;;;;;;;;;;;;;;5014073;28;1969;-78
2022/01/26 03:21:58;;;;;;;;;;;;;;;;;;5014604;28;1402;-77
2022/01/26 03:35:48;;;;;;;;;;;;;;;;;;5011729;28;1957;-74
2022/01/26 03:38:27;;;;;;;;;;;;;;;;;;4995659;28;1161;-75
2022/01/26 03:41:13;;;;;;;;;;;;;;;;;;5001152;28;1588;-75
2022/01/26 03:43:38;;;;;;;;;;;;;;;;;;5005975;28;1391;-75
2022/01/26 03:46:03;;;;;;;;;;;;;;;;;;5013525;28;1166;-75
2022/01/26 03:48:28;;;;;;;;;;;;;;;;;;5012918;28;933;-75
2022/01/26 03:50:53;;;;;;;;;;;;;;;;;;5013845;28;835;-75
2022/01/26 03:53:19;;;;;;;;;;;;;;;;;;5013889;28;800;-75
2022/01/26 03:55:44;;;;;;;;;;;;;;;;;;5013502;28;1966;-75
2022/01/26 03:58:10;;;;;;;;;;;;;;;;;;5013965;28;914;-76
2022/01/26 04:00:36;;;;;;;;;;;;;;;;;;5013825;28;834;-76
2022/01/26 04:03:01;;;;;;;;;;;;;;;;;;5013700;28;798;-76
2022/01/26 04:05:27;;;;;;;;;;;;;;;;;;5013559;28;1192;-76
2022/01/26 04:07:58;;;;;;;;;;;;;;;;;;5012450;28;831;-76
2022/01/26 04:10:38;;;;;;;;;;;;;;;;;;5013976;28;850;-76
2022/01/26 04:13:03;;;;;;;;;;;;;;;;;;5013761;28;834;-76
2022/01/26 04:15:32;;;;;;;;;;;;;;;;;;5013225;28;1931;-76
2022/01/26 04:17:58;;;;;;;;;;;;;;;;;;5013376;28;863;-76
2022/01/26 04:20:27;;;;;;;;;;;;;;;;;;5013465;28;835;-76
2022/01/26 04:23:09;;;;;;;;;;;;;;;;;;5013451;28;885;-76
2022/01/26 04:25:35;;;;;;;;;;;;;;;;;;5013160;28;1221;-76
2022/01/26 04:28:08;;;;;;;;;;;;;;;;;;5011404;28;822;-76
2022/01/26 04:30:33;;;;;;;;;;;;;;;;;;5013413;28;933;-76
2022/01/26 04:33:03;;;;;;;;;;;;;;;;;;5013244;28;1080;-76
2022/01/26 04:35:28;;;;;;;;;;;;;;;;;;5013098;28;1973;-76
2022/01/26 04:38:13;;;;;;;;;;;;;;;;;;5013159;28;905;-76
2022/01/26 04:40:47;;;;;;;;;;;;;;;;;;5012524;28;957;-76
2022/01/26 04:43:18;;;;;;;;;;;;;;;;;;5014118;28;898;-76
2022/01/26 04:45:43;;;;;;;;;;;;;;;;;;5013186;28;1403;-76
2022/01/26 04:48:08;;;;;;;;;;;;;;;;;;5013066;28;827;-76
2022/01/26 04:50:34;;;;;;;;;;;;;;;;;;5012053;28;914;-76
2022/01/26 04:52:59;;;;;;;;;;;;;;;;;;5013163;28;867;-76
2022/01/26 04:55:24;;;;;;;;;;;;;;;;;;5011600;28;1969;-76
2022/01/26 04:57:49;;;;;;;;;;;;;;;;;;5013140;28;811;-76
2022/01/26 05:00:14;;;;;;;;;;;;;;;;;;5013121;28;1009;-76
2022/01/26 05:02:40;;;;;;;;;;;;;;;;;;5011905;28;934;-76
2022/01/26 05:05:05;;;;;;;;;;;;;;;;;;5012969;28;1149;-76
2022/01/26 05:07:30;;;;;;;;;;;;;;;;;;5012753;28;933;-77
2022/01/26 05:09:55;;;;;;;;;;;;;;;;;;5013044;28;898;-77
2022/01/26 05:12:21;;;;;;;;;;;;;;;;;;5012830;28;826;-77
2022/01/26 05:14:48;;;;;;;;;;;;;;;;;;5012865;28;1216;-77
2022/01/26 05:17:14;;;;;;;;;;;;;;;;;;5011467;28;1898;-77
2022/01/26 05:19:39;;;;;;;;;;;;;;;;;;5013010;28;886;-77
2022/01/26 05:22:04;;;;;;;;;;;;;;;;;;5011696;28;1013;-77
2022/01/26 05:24:29;;;;;;;;;;;;;;;;;;5012812;28;926;-76
2022/01/26 05:26:55;;;;;;;;;;;;;;;;;;5012263;28;1260;-76
2022/01/26 05:29:20;;;;;;;;;;;;;;;;;;5011396;28;839;-77
2022/01/26 05:31:45;;;;;;;;;;;;;;;;;;5011561;28;839;-77
2022/01/26 05:34:10;;;;;;;;;;;;;;;;;;5012958;28;921;-77
2022/01/26 05:36:35;;;;;;;;;;;;;;;;;;5012539;28;1902;-77
2022/01/26 05:39:01;;;;;;;;;;;;;;;;;;5013579;28;894;-77
2022/01/26 05:41:27;;;;;;;;;;;;;;;;;;5016311;28;835;-77
2022/01/26 05:43:52;;;;;;;;;;;;;;;;;;5016222;28;783;-77
2022/01/26 05:46:28;;;;;;;;;;;;;;;;;;5016091;28;1208;-77
2022/01/26 05:48:55;;;;;;;;;;;;;;;;;;5015142;28;854;-77
2022/01/26 05:51:20;;;;;;;;;;;;;;;;;;5016228;28;902;-77
2022/01/26 05:53:45;;;;;;;;;;;;;;;;;;5016336;28;799;-77
2022/01/26 05:56:11;;;;;;;;;;;;;;;;;;5015792;28;1964;-77
2022/01/26 05:58:36;;;;;;;;;;;;;;;;;;5014781;28;823;-77
2022/01/26 06:01:02;;;;;;;;;;;;;;;;;;5016064;28;807;-77
2022/01/26 06:03:27;;;;;;;;;;;;;;;;;;5014914;28;874;-77
2022/01/26 06:05:55;;;;;;;;;;;;;;;;;;5014592;28;1193;-77
2022/01/26 06:08:21;;;;;;;;;;;;;;;;;;5015794;28;890;-77
2022/01/26 06:10:47;;;;;;;;;;;;;;;;;;5014772;28;922;-77
2022/01/26 06:13:12;;;;;;;;;;;;;;;;;;5014516;28;846;-77
2022/01/26 06:15:37;;;;;;;;;;;;;;;;;;5015317;28;1902;-77
2022/01/26 06:18:03;;;;;;;;;;;;;;;;;;5015533;28;827;-77
2022/01/26 06:20:28;;;;;;;;;;;;;;;;;;5015675;28;823;-77
2022/01/26 06:22:53;;;;;;;;;;;;;;;;;;5015671;28;952;-77
2022/01/26 06:25:19;;;;;;;;;;;;;;;;;;5015212;28;1196;-77
2022/01/26 06:27:44;;;;;;;;;;;;;;;;;;5015554;28;938;-77
2022/01/26 06:30:10;;;;;;;;;;;;;;;;;;5015403;28;823;-77
2022/01/26 06:32:37;;;;;;;;;;;;;;;;;;5014121;28;1060;-78
2022/01/26 06:35:02;;;;;;;;;;;;;;;;;;5015105;28;1289;-77
2022/01/26 06:37:27;;;;;;;;;;;;;;;;;;5015280;28;1894;-77
2022/01/26 06:39:53;;;;;;;;;;;;;;;;;;5015256;28;927;-77
2022/01/26 06:42:23;;;;;;;;;;;;;;;;;;5015145;28;779;-77
2022/01/26 06:45:13;;;;;;;;;;;;;;;;;;5015059;28;1275;-77
2022/01/26 06:47:53;;;;;;;;;;;;;;;;;;5014853;28;1220;-77
2022/01/26 06:50:19;;;;;;;;;;;;;;;;;;5013024;28;874;-77
2022/01/26 06:52:46;;;;;;;;;;;;;;;;;;5015227;28;811;-78
2022/01/26 06:55:11;;;;;;;;;;;;;;;;;;5014522;28;1248;-78
2022/01/26 06:57:36;;;;;;;;;;;;;;;;;;5014780;28;1899;-77
2022/01/26 07:00:03;;;;;;;;;;;;;;;;;;5014852;28;807;-77
2022/01/26 07:02:28;;;;;;;;;;;;;;;;;;5013531;28;847;-78
2022/01/26 07:04:53;;;;;;;;;;;;;;;;;;5014614;28;1185;-79
2022/01/26 07:07:18;;;;;;;;;;;;;;;;;;5014604;28;847;-79
2022/01/26 07:09:44;;;;;;;;;;;;;;;;;;5014699;28;788;-78
2022/01/26 07:12:09;;;;;;;;;;;;;;;;;;5014684;28;792;-79
2022/01/26 07:20:51;;;;;;;;;;;;;;;;;;5014724;28;685;-79
2022/01/26 07:22:47;;;;;;;;;;;;;;;;;;5014214;28;1035;-79
2022/01/26 07:25:12;;;;;;;;;;;;;;;;;;5014113;28;1181;-79
2022/01/26 07:27:37;;;;;;;;;;;;;;;;;;5014377;28;886;-79
2022/01/26 07:30:03;;;;;;;;;;;;;;;;;;5012880;28;859;-80
2022/01/26 07:32:30;;;;;;;;;;;;;;;;;;5014381;28;866;-79
2022/01/26 07:34:55;;;;;;;;;;;;;;;;;;5013998;28;1303;-79
2022/01/26 07:37:21;;;;;;;;;;;;;;;;;;5014043;28;1964;-79
2022/01/26 07:40:02;;;;;;;;;;;;;;;;;;5014042;28;882;-80
2022/01/26 07:42:27;;;;;;;;;;;;;;;;;;5013020;28;934;-80
2022/01/26 07:44:52;;;;;;;;;;;;;;;;;;5013858;28;1188;-79
2022/01/26 07:47:17;;;;;;;;;;;;;;;;;;5013942;28;795;-79
2022/01/26 07:49:42;;;;;;;;;;;;;;;;;;5014002;28;965;-79
2022/01/26 07:52:08;;;;;;;;;;;;;;;;;;5013986;28;828;-80
2022/01/26 07:54:33;;;;;;;;;;;;;;;;;;5013759;28;799;-79
2022/01/26 07:56:58;;;;;;;;;;;;;;;;;;5013432;28;1910;-79
2022/01/26 07:59:23;;;;;;;;;;;;;;;;;;5013762;28;839;-79
2022/01/26 08:01:49;;;;;;;;;;;;;;;;;;5013624;28;1018;-79
2022/01/26 08:04:14;;;;;;;;;;;;;;;;;;5013949;28;918;-79
2022/01/26 08:06:40;;;;;;;;;;;;;;;;;;5013516;28;1188;-80
2022/01/26 08:09:05;;;;;;;;;;;;;;;;;;5013687;28;834;-79
2022/01/26 08:11:30;;;;;;;;;;;;;;;;;;5012285;28;894;-79
2022/01/26 08:13:56;;;;;;;;;;;;;;;;;;5012259;28;1397;-80
2022/01/26 08:16:21;;;;;;;;;;;;;;;;;;5013152;28;1971;-80
2022/01/26 08:18:47;;;;;;;;;;;;;;;;;;5013607;28;1080;-79
2022/01/26 08:21:14;;;;;;;;;;;;;;;;;;5013460;28;811;-79
2022/01/26 08:23:43;;;;;;;;;;;;;;;;;;5013488;28;843;-79
2022/01/26 08:26:08;;;;;;;;;;;;;;;;;;5013035;28;1283;-79
2022/01/26 08:28:40;;;;;;;;;;;;;;;;;;5013355;28;1064;-79
2022/01/26 08:31:05;;;;;;;;;;;;;;;;;;5013356;28;847;-79
2022/01/26 08:33:30;;;;;;;;;;;;;;;;;;5013474;28;902;-79
2022/01/26 08:35:55;;;;;;;;;;;;;;;;;;5011716;28;1938;-79
2022/01/26 08:38:21;;;;;;;;;;;;;;;;;;5013207;28;1060;-79
2022/01/26 08:40:46;;;;;;;;;;;;;;;;;;5011923;28;878;-79
2022/01/26 08:43:12;;;;;;;;;;;;;;;;;;5013308;28;811;-79
2022/01/26 08:45:37;;;;;;;;;;;;;;;;;;5012832;28;1177;-79
2022/01/26 08:48:02;;;;;;;;;;;;;;;;;;5012037;28;795;-79
2022/01/26 08:50:28;;;;;;;;;;;;;;;;;;5013008;28;755;-79
2022/01/26 08:52:53;;;;;;;;;;;;;;;;;;5013195;28;910;-79
2022/01/26 08:55:19;;;;;;;;;;;;;;;;;;5012786;28;1192;-79
2022/01/26 08:57:44;;;;;;;;;;;;;;;;;;5011933;28;1985;-79
2022/01/26 09:00:09;;;;;;;;;;;;;;;;;;5013016;28;921;-79
2022/01/26 09:02:35;;;;;;;;;;;;;;;;;;5013297;28;985;-79
2022/01/26 09:05:00;;;;;;;;;;;;;;;;;;5011501;28;1205;-79
2022/01/26 09:07:26;;;;;;;;;;;;;;;;;;5013095;28;917;-79
2022/01/26 09:09:51;;;;;;;;;;;;;;;;;;5012971;28;948;-79
2022/01/26 09:12:17;;;;;;;;;;;;;;;;;;5013191;28;807;-79
2022/01/26 09:14:43;;;;;;;;;;;;;;;;;;5015257;28;1259;-78
2022/01/26 09:17:10;;;;;;;;;;;;;;;;;;5016536;28;1928;-78
2022/01/26 09:19:35;;;;;;;;;;;;;;;;;;5016850;28;810;-79
2022/01/26 09:22:02;;;;;;;;;;;;;;;;;;5015436;28;936;-78
2022/01/26 09:24:28;;;;;;;;;;;;;;;;;;5015448;28;886;-78
2022/01/26 09:26:54;;;;;;;;;;;;;;;;;;5016564;28;1193;-79
2022/01/26 09:29:19;;;;;;;;;;;;;;;;;;5015432;28;874;-79
2022/01/26 09:31:47;;;;;;;;;;;;;;;;;;5015194;28;1391;-79
2022/01/26 09:34:13;;;;;;;;;;;;;;;;;;5016570;28;933;-79
2022/01/26 09:36:39;;;;;;;;;;;;;;;;;;5015915;28;1963;-79
2022/01/26 09:39:04;;;;;;;;;;;;;;;;;;5014952;28;895;-79
2022/01/26 09:41:29;;;;;;;;;;;;;;;;;;5015106;28;870;-79
2022/01/26 09:43:54;;;;;;;;;;;;;;;;;;5016395;28;811;-79
2022/01/26 09:46:20;;;;;;;;;;;;;;;;;;4998460;28;1283;-79
2022/01/26 09:48:45;;;;;;;;;;;;;;;;;;5016283;28;815;-79
2022/01/26 09:51:10;;;;;;;;;;;;;;;;;;5015957;28;938;-79
2022/01/26 09:53:36;;;;;;;;;;;;;;;;;;5016207;28;878;-79
2022/01/26 09:56:01;;;;;;;;;;;;;;;;;;5015678;28;1898;-79
2022/01/26 09:58:27;;;;;;;;;;;;;;;;;;5016107;28;880;-79
2022/01/26 10:00:59;;;;;;;;;;;;;;;;;;5014638;28;849;-78
2022/01/26 10:03:28;;;;;;;;;;;;;;;;;;5014898;28;985;-79
2022/01/26 10:05:53;;;;;;;;;;;;;;;;;;5015781;28;1149;-79
2022/01/26 10:18:58;;;;;;;;;;;;;;;;;;5016074;28;917;-79
2022/01/26 10:21:23;;;;;;;;;;;;;;;;;;5014135;28;867;-79
2022/01/26 10:23:49;;;;;;;;;;;;;;;;;;5014072;28;827;-78
2022/01/26 10:26:19;;;;;;;;;;;;;;;;;;5014225;28;1177;-78
2022/01/26 10:28:44;;;;;;;;;;;;;;;;;;5014358;28;822;-78
2022/01/26 10:31:16;;;;;;;;;;;;;;;;;;5015162;28;862;-80
2022/01/26 10:33:52;;;;;;;;;;;;;;;;;;5015662;28;835;-78
2022/01/26 10:36:17;;;;;;;;;;;;;;;;;;5014867;28;2042;-78
2022/01/26 10:38:43;;;;;;;;;;;;;;;;;;5015291;28;957;-78
2022/01/26 10:41:20;;;;;;;;;;;;;;;;;;5015280;28;816;-79
2022/01/26 10:43:49;;;;;;;;;;;;;;;;;;5014024;28;855;-78
2022/01/26 10:46:24;;;;;;;;;;;;;;;;;;5013624;28;1272;-78
2022/01/26 10:49:07;;;;;;;;;;;;;;;;;;5013925;28;914;-79
2022/01/26 10:51:51;;;;;;;;;;;;;;;;;;5013838;28;929;-79
2022/01/26 10:57:01;;;;;;;;;;;;;;;;;;5014676;28;1910;-79
2022/01/26 10:59:26;;;;;;;;;;;;;;;;;;5013825;28;877;-79
2022/01/26 11:01:51;;;;;;;;;;;;;;;;;;5014728;28;918;-79
2022/01/26 11:04:16;;;;;;;;;;;;;;;;;;5014870;28;984;-79
2022/01/26 11:06:42;;;;;;;;;;;;;;;;;;5014359;28;1204;-79
2022/01/26 11:09:12;;;;;;;;;;;;;;;;;;5013649;28;834;-79
2022/01/26 11:11:40;;;;;;;;;;;;;;;;;;5013507;28;855;-79
2022/01/26 11:14:14;;;;;;;;;;;;;;;;;;5014958;28;818;-79
2022/01/26 11:16:47;;;;;;;;;;;;;;;;;;5014196;28;1883;-78
2022/01/26 11:19:12;;;;;;;;;;;;;;;;;;5014785;28;822;-79
2022/01/26 11:21:39;;;;;;;;;;;;;;;;;;5013124;28;1572;-80
2022/01/26 11:24:06;;;;;;;;;;;;;;;;;;5014537;28;862;-79
2022/01/26 11:26:32;;;;;;;;;;;;;;;;;;5014069;28;1264;-79
2022/01/26 11:28:57;;;;;;;;;;;;;;;;;;4996842;28;843;-79
2022/01/26 11:31:24;;;;;;;;;;;;;;;;;;5013109;28;995;-79
2022/01/26 11:33:49;;;;;;;;;;;;;;;;;;5012991;28;815;-79
2022/01/26 11:36:17;;;;;;;;;;;;;;;;;;5012299;28;1977;-79
2022/01/26 11:42:11;;;;;;;;;;;;;;;;;;5014187;28;881;-79
2022/01/26 11:47:09;;;;;;;;;;;;;;;;;;5013807;28;637;-78
2022/01/26 11:49:35;;;;;;;;;;;;;;;;;;5014056;28;1048;-78
2022/01/26 11:52:00;;;;;;;;;;;;;;;;;;5012618;28;1032;-78
2022/01/26 11:54:51;;;;;;;;;;;;;;;;;;5012732;28;1207;-78
2022/01/26 11:57:18;;;;;;;;;;;;;;;;;;5013726;28;1957;-78
2022/01/26 11:59:49;;;;;;;;;;;;;;;;;;5012788;28;807;-78
2022/01/26 12:02:22;;;;;;;;;;;;;;;;;;5013843;28;834;-78
2022/01/26 12:05:06;;;;;;;;;;;;;;;;;;5012442;28;1337;-78
2022/01/26 12:07:31;;;;;;;;;;;;;;;;;;5012619;28;842;-78
2022/01/26 12:09:57;;;;;;;;;;;;;;;;;;5012533;28;815;-78
2022/01/26 12:12:22;;;;;;;;;;;;;;;;;;5012255;28;838;-78
2022/01/26 12:15:01;;;;;;;;;;;;;;;;;;5013529;28;1188;-78
2022/01/26 12:17:30;;;;;;;;;;;;;;;;;;5012083;28;1898;-78
2022/01/26 12:37:06;;;;;;;;;;;;;;;;;;5013135;28;1902;-78
2022/01/26 12:42:38;;;;;;;;;;;;;;;;;;5012531;28;613;-78
2022/01/26 12:45:03;;;;;;;;;;;;;;;;;;5013061;28;1256;-78
2022/01/26 12:47:29;;;;;;;;;;;;;;;;;;5011966;28;866;-78
2022/01/26 12:49:55;;;;;;;;;;;;;;;;;;5017487;28;1064;-78
2022/01/26 12:52:21;;;;;;;;;;;;;;;;;;4999641;28;1253;-78
2022/01/26 12:54:46;;;;;;;;;;;;;;;;;;5017141;28;1278;-78
2022/01/26 12:57:13;;;;;;;;;;;;;;;;;;5015687;28;1914;-78
2022/01/26 12:59:38;;;;;;;;;;;;;;;;;;5017183;28;839;-78
2022/01/26 13:02:03;;;;;;;;;;;;;;;;;;5016980;28;1045;-78
2022/01/26 13:04:28;;;;;;;;;;;;;;;;;;5017143;28;903;-78
2022/01/26 13:06:54;;;;;;;;;;;;;;;;;;5016722;28;1157;-78
2022/01/26 13:09:26;;;;;;;;;;;;;;;;;;5015882;28;990;-78
2022/01/26 13:11:52;;;;;;;;;;;;;;;;;;5015638;28;878;-78
2022/01/26 13:14:28;;;;;;;;;;;;;;;;;;5015670;28;965;-78
2022/01/26 13:16:59;;;;;;;;;;;;;;;;;;5015342;28;1894;-78
2022/01/26 13:22:25;;;;;;;;;;;;;;;;;;5015673;28;815;-78
2022/01/26 13:27:26;;;;;;;;;;;;;;;;;;5016902;28;830;-78
2022/01/26 13:40:09;;;;;;;;;;;;;;;;;;5016543;28;799;-78
2022/01/26 13:43:14;;;;;;;;;;;;;;;;;;5016612;28;885;-78
2022/01/26 13:50:36;;;;;;;;;;;;;;;;;;5015515;28;942;-78
2022/01/26 13:53:08;;;;;;;;;;;;;;;;;;5016181;28;845;-78
2022/01/26 13:55:47;;;;;;;;;;;;;;;;;;5015890;28;1232;-78
2022/01/26 14:00:53;;;;;;;;;;;;;;;;;;5015886;28;854;-78
2022/01/26 14:03:19;;;;;;;;;;;;;;;;;;5014587;28;855;-78
2022/01/26 14:05:44;;;;;;;;;;;;;;;;;;5015453;28;1204;-78
2022/01/26 14:08:09;;;;;;;;;;;;;;;;;;5015835;28;942;-78
2022/01/26 14:10:36;;;;;;;;;;;;;;;;;;5015500;28;1013;-78
2022/01/26 14:13:01;;;;;;;;;;;;;;;;;;5015785;28;901;-77
2022/01/26 14:15:38;;;;;;;;;;;;;;;;;;5015517;28;1184;-77
2022/01/26 14:18:37;;;;;;;;;;;;;;;;;;5014689;28;1910;-77
2022/01/26 14:21:08;;;;;;;;;;;;;;;;;;5015592;28;843;-77
2022/01/26 14:23:57;;;;;;;;;;;;;;;;;;5015601;28;913;-78
2022/01/26 14:26:25;;;;;;;;;;;;;;;;;;5015394;28;1191;-78
2022/01/26 14:28:50;;;;;;;;;;;;;;;;;;5014339;28;979;-78
2022/01/26 14:36:41;;;;;;;;;;;;;;;;;;4995572;28;1895;-78
2022/01/26 14:39:40;;;;;;;;;;;;;;;;;;4995681;28;962;-78
2022/01/26 15:09:29;;;;;;;;;;;;;;;;;;4995287;28;700;-78
2022/01/26 15:19:11;;;;;;;;;;;;;;;;;;4994529;28;2049;-78
2022/01/26 15:21:19;;;;;;;;;;;;;;;;;;4990764;28;1135;-78
2022/01/26 15:34:32;;;;;;;;;;;;;;;;;;4976851;28;1022;-78
2022/01/26 15:42:30;;;;;;;;;;;;;;;;;;4994688;28;606;-78
2022/01/26 15:50:25;;;;;;;;;;;;;;;;;;4994388;28;697;-78
2022/01/26 15:53:05;;;;;;;;;;;;;;;;;;4994355;28;838;-78
2022/01/26 15:58:23;;;;;;;;;;;;;;;;;;4994323;28;685;-78
2022/01/26 16:17:51;;;;;;;;;;;;;;;;;;4993679;28;1969;-78
2022/01/26 17:11:09;;;;;;;;;;;;;;;;;;4914555;29;603;-76
2022/01/26 17:47:29;;;;;;;;;;;;;;;;;;4995626;28;1347;-76
2022/01/26 18:07:14;;;;;;;;;;;;;;;;;;4995109;28;1327;-75
2022/01/26 18:17:42;;;;;;;;;;;;;;;;;;4996076;28;1910;-75
2022/01/26 18:39:30;;;;;;;;;;;;;;;;;;4994651;28;796;-75
2022/01/26 18:50:00;;;;;;;;;;;;;;;;;;4994738;28;731;-76
2022/01/26 18:52:26;;;;;;;;;;;;;;;;;;4995498;28;871;-75
2022/01/26 18:54:51;;;;;;;;;;;;;;;;;;4995308;28;1177;-75
2022/01/26 18:57:16;;;;;;;;;;;;;;;;;;4995141;28;1902;-75
2022/01/26 18:59:41;;;;;;;;;;;;;;;;;;4995426;28;966;-75
2022/01/26 19:02:07;;;;;;;;;;;;;;;;;;4995339;28;811;-75
2022/01/26 19:04:47;;;;;;;;;;;;;;;;;;4995465;28;842;-75
2022/01/26 19:07:16;;;;;;;;;;;;;;;;;;4995073;28;1176;-75
2022/01/26 19:09:46;;;;;;;;;;;;;;;;;;4994030;28;889;-75
2022/01/26 19:12:14;;;;;;;;;;;;;;;;;;4993801;28;1081;-75
2022/01/26 19:14:42;;;;;;;;;;;;;;;;;;4977811;28;1213;-78
2022/01/26 19:17:14;;;;;;;;;;;;;;;;;;4993711;28;1981;-75
2022/01/26 19:22:47;;;;;;;;;;;;;;;;;;4994914;28;736;-75
2022/01/26 19:28:17;;;;;;;;;;;;;;;;;;4993990;28;984;-76
2022/01/26 19:31:46;;;;;;;;;;;;;;;;;;4990019;28;1005;-76
2022/01/26 19:44:15;;;;;;;;;;;;;;;;;;4994854;28;905;-76
2022/01/26 19:52:10;;;;;;;;;;;;;;;;;;4993594;28;637;-76
2022/01/26 19:54:36;;;;;;;;;;;;;;;;;;4994469;28;1196;-76
2022/01/26 19:57:03;;;;;;;;;;;;;;;;;;4992704;28;1973;-76
2022/01/26 19:59:28;;;;;;;;;;;;;;;;;;4993131;28;901;-76
2022/01/26 20:01:53;;;;;;;;;;;;;;;;;;4993151;28;907;-75
2022/01/26 20:04:19;;;;;;;;;;;;;;;;;;4994055;28;946;-75
2022/01/26 20:06:45;;;;;;;;;;;;;;;;;;4993997;28;1299;-75
2022/01/26 20:11:52;;;;;;;;;;;;;;;;;;4994174;28;692;-76
2022/01/26 20:14:22;;;;;;;;;;;;;;;;;;4994120;28;899;-75
2022/01/26 20:16:47;;;;;;;;;;;;;;;;;;4993536;28;1910;-75
2022/01/26 20:19:13;;;;;;;;;;;;;;;;;;4976566;28;1323;-75
2022/01/26 20:21:38;;;;;;;;;;;;;;;;;;4994061;28;1045;-76
2022/01/26 20:24:03;;;;;;;;;;;;;;;;;;4994090;28;903;-76
2022/01/26 20:26:28;;;;;;;;;;;;;;;;;;4993818;28;1201;-76
2022/01/26 20:28:54;;;;;;;;;;;;;;;;;;4993849;28;1029;-76
2022/01/26 20:31:22;;;;;;;;;;;;;;;;;;4993860;28;901;-76
2022/01/26 20:33:48;;;;;;;;;;;;;;;;;;4992594;28;850;-76
2022/01/26 20:36:13;;;;;;;;;;;;;;;;;;4992245;28;1902;-76
2022/01/26 20:38:39;;;;;;;;;;;;;;;;;;4993805;28;823;-75
2022/01/26 20:41:05;;;;;;;;;;;;;;;;;;4993833;28;791;-76
2022/01/26 20:43:30;;;;;;;;;;;;;;;;;;4993740;28;830;-76
2022/01/26 20:45:55;;;;;;;;;;;;;;;;;;4993332;28;1197;-76
2022/01/26 20:48:21;;;;;;;;;;;;;;;;;;4993621;28;874;-75
2022/01/26 20:50:46;;;;;;;;;;;;;;;;;;4993625;28;1037;-76
2022/01/26 20:53:11;;;;;;;;;;;;;;;;;;4992407;28;1049;-76
2022/01/26 20:55:36;;;;;;;;;;;;;;;;;;4993203;28;1263;-76
2022/01/26 20:58:02;;;;;;;;;;;;;;;;;;4993753;28;1969;-76
2022/01/26 21:00:27;;;;;;;;;;;;;;;;;;4976016;28;1309;-76
2022/01/26 21:02:53;;;;;;;;;;;;;;;;;;4993863;28;839;-75
2022/01/26 21:05:27;;;;;;;;;;;;;;;;;;4993169;28;1283;-75
2022/01/26 21:07:52;;;;;;;;;;;;;;;;;;4992412;28;922;-75
2022/01/26 21:10:18;;;;;;;;;;;;;;;;;;4996388;28;811;-75
2022/01/26 21:12:43;;;;;;;;;;;;;;;;;;4997495;28;846;-75
2022/01/26 21:15:09;;;;;;;;;;;;;;;;;;4995671;28;1185;-75
2022/01/26 21:17:34;;;;;;;;;;;;;;;;;;4997557;28;1907;-75
2022/01/26 21:19:59;;;;;;;;;;;;;;;;;;4997448;28;1005;-75
2022/01/26 21:22:24;;;;;;;;;;;;;;;;;;4997270;28;858;-75
2022/01/26 21:24:50;;;;;;;;;;;;;;;;;;4997033;28;1181;-75
2022/01/26 21:27:16;;;;;;;;;;;;;;;;;;4997043;28;804;-75
2022/01/26 21:29:41;;;;;;;;;;;;;;;;;;4996987;28;859;-75
2022/01/26 21:32:06;;;;;;;;;;;;;;;;;;4979545;28;1034;-75
2022/01/26 21:34:32;;;;;;;;;;;;;;;;;;4996980;28;938;-75
2022/01/26 21:36:57;;;;;;;;;;;;;;;;;;4996575;28;1969;-75
2022/01/26 21:39:22;;;;;;;;;;;;;;;;;;4996808;28;867;-75
2022/01/26 21:41:48;;;;;;;;;;;;;;;;;;4996857;28;1057;-75
2022/01/26 21:44:13;;;;;;;;;;;;;;;;;;4996743;28;850;-75
2022/01/26 21:46:40;;;;;;;;;;;;;;;;;;4996524;28;1189;-75
2022/01/26 21:49:05;;;;;;;;;;;;;;;;;;4996745;28;846;-75
2022/01/26 21:51:30;;;;;;;;;;;;;;;;;;4995635;28;839;-75
2022/01/26 21:53:56;;;;;;;;;;;;;;;;;;4996722;28;796;-75
2022/01/26 21:56:23;;;;;;;;;;;;;;;;;;4996302;28;1899;-75
2022/01/26 21:58:48;;;;;;;;;;;;;;;;;;4996527;28;905;-75
2022/01/26 22:01:13;;;;;;;;;;;;;;;;;;4995447;28;998;-75
2022/01/26 22:03:38;;;;;;;;;;;;;;;;;;4996539;28;839;-75
2022/01/26 22:06:04;;;;;;;;;;;;;;;;;;4996090;28;1201;-75
2022/01/26 22:08:29;;;;;;;;;;;;;;;;;;4996693;28;819;-75
2022/01/26 22:10:54;;;;;;;;;;;;;;;;;;4996355;28;814;-75
2022/01/26 22:13:19;;;;;;;;;;;;;;;;;;4996388;28;815;-75
2022/01/26 22:15:44;;;;;;;;;;;;;;;;;;4996030;28;1185;-75
2022/01/26 22:18:10;;;;;;;;;;;;;;;;;;4997318;28;1973;-75
2022/01/26 22:20:35;;;;;;;;;;;;;;;;;;4995979;28;887;-75
2022/01/26 22:23:01;;;;;;;;;;;;;;;;;;4996187;28;882;-75
2022/01/26 22:25:27;;;;;;;;;;;;;;;;;;4995931;28;1201;-75
2022/01/26 22:27:54;;;;;;;;;;;;;;;;;;4994744;28;890;-75
2022/01/26 22:30:21;;;;;;;;;;;;;;;;;;4978618;28;903;-75
2022/01/26 22:32:46;;;;;;;;;;;;;;;;;;4996132;28;925;-75
2022/01/26 22:35:11;;;;;;;;;;;;;;;;;;4995613;28;1271;-75
2022/01/26 22:37:37;;;;;;;;;;;;;;;;;;4995651;28;1981;-75
2022/01/26 22:40:04;;;;;;;;;;;;;;;;;;4995912;28;854;-75
2022/01/26 22:42:29;;;;;;;;;;;;;;;;;;4995816;28;851;-75
2022/01/26 22:44:54;;;;;;;;;;;;;;;;;;4995506;28;1208;-75
2022/01/26 22:47:21;;;;;;;;;;;;;;;;;;4995518;28;827;-75
2022/01/26 22:49:47;;;;;;;;;;;;;;;;;;4994538;28;850;-75
2022/01/26 22:52:12;;;;;;;;;;;;;;;;;;4995705;28;914;-75
2022/01/26 22:54:37;;;;;;;;;;;;;;;;;;4995336;28;1247;-75
2022/01/26 22:57:03;;;;;;;;;;;;;;;;;;4993974;28;1971;-75
2022/01/26 22:59:28;;;;;;;;;;;;;;;;;;4994237;28;835;-75
2022/01/26 23:02:39;;;;;;;;;;;;;;;;;;4995443;28;795;-75
2022/01/26 23:04:59;;;;;;;;;;;;;;;;;;4994983;28;1268;-75
2022/01/26 23:07:24;;;;;;;;;;;;;;;;;;4995227;28;858;-75
2022/01/26 23:09:49;;;;;;;;;;;;;;;;;;4995088;28;1064;-75
2022/01/26 23:12:14;;;;;;;;;;;;;;;;;;4995242;28;946;-75
2022/01/26 23:14:40;;;;;;;;;;;;;;;;;;4995019;28;1267;-75
2022/01/26 23:17:05;;;;;;;;;;;;;;;;;;4994789;28;1906;-75
2022/01/26 23:19:30;;;;;;;;;;;;;;;;;;4994976;28;938;-75
2022/01/26 23:21:55;;;;;;;;;;;;;;;;;;4994824;28;886;-75
2022/01/26 23:24:29;;;;;;;;;;;;;;;;;;4993694;28;816;-75
2022/01/26 23:27:03;;;;;;;;;;;;;;;;;;4994506;28;1212;-75
2022/01/26 23:29:43;;;;;;;;;;;;;;;;;;4994897;28;983;-75
2022/01/26 23:32:32;;;;;;;;;;;;;;;;;;4994154;28;803;-75
2022/01/26 23:35:10;;;;;;;;;;;;;;;;;;4994375;28;1327;-75
2022/01/26 23:40:27;;;;;;;;;;;;;;;;;;4994647;28;657;-75
